sensor_id;sensor_type;location;lat;lon;timestamp;P1;durP1;ratioP1;P2;durP2;ratioP2
1164;SDS011;571;50.930;6.926;2023-01-04T04:03:22;0.63;;;0.50;;
1164;SDS011;571;50.930;6.926;2023-01-04T05:13:59;0.70;;;0.40;;
1164;SDS011;571;50.930;6.926;2023-01-04T05:27:57;1.03;;;0.40;;
1164;SDS011;571;50.930;6.926;2023-01-04T05:41:24;0.50;;;0.33;;
1164;SDS011;571;50.930;6.926;2023-01-04T05:48:05;0.40;;;0.20;;
1164;SDS011;571;50.930;6.926;2023-01-04T05:58:21;0.50;;;0.30;;
1164;SDS011;571;50.930;6.926;2023-01-04T06:01:53;1.17;;;0.33;;
1164;SDS011;571;50.930;6.926;2023-01-04T06:08:06;0.47;;;0.27;;
1164;SDS011;571;50.930;6.926;2023-01-04T06:27:59;0.60;;;0.30;;
1164;SDS011;571;50.930;6.926;2023-01-04T06:34:30;0.40;;;0.30;;
1164;SDS011;571;50.930;6.926;2023-01-04T06:40:09;0.50;;;0.30;;
1164;SDS011;571;50.930;6.926;2023-01-04T06:43:24;0.50;;;0.30;;
1164;SDS011;571;50.930;6.926;2023-01-04T06:56:09;0.60;;;0.30;;
1164;SDS011;571;50.930;6.926;2023-01-04T07:02:39;0.40;;;0.30;;
1164;SDS011;571;50.930;6.926;2023-01-04T07:13:12;0.50;;;0.40;;
1164;SDS011;571;50.930;6.926;2023-01-04T07:15:41;1.80;;;0.43;;
1164;SDS011;571;50.930;6.926;2023-01-04T07:18:33;0.50;;;0.40;;
1164;SDS011;571;50.930;6.926;2023-01-04T07:21:49;0.60;;;0.40;;
1164;SDS011;571;50.930;6.926;2023-01-04T07:27:52;1.00;;;0.63;;
1164;SDS011;571;50.930;6.926;2023-01-04T07:31:02;1.10;;;0.50;;
1164;SDS011;571;50.930;6.926;2023-01-04T07:41:00;0.77;;;0.47;;
1164;SDS011;571;50.930;6.926;2023-01-04T07:43:53;0.90;;;0.47;;
1164;SDS011;571;50.930;6.926;2023-01-04T07:47:10;0.80;;;0.40;;
1164;SDS011;571;50.930;6.926;2023-01-04T07:50:13;0.60;;;0.40;;
1164;SDS011;571;50.930;6.926;2023-01-04T07:53:30;0.93;;;0.40;;
1164;SDS011;571;50.930;6.926;2023-01-04T08:03:08;0.77;;;0.50;;
1164;SDS011;571;50.930;6.926;2023-01-04T08:06:30;0.77;;;0.50;;
1164;SDS011;571;50.930;6.926;2023-01-04T08:09:07;1.17;;;0.80;;
1164;SDS011;571;50.930;6.926;2023-01-04T08:11:55;1.53;;;0.60;;
1164;SDS011;571;50.930;6.926;2023-01-04T08:16:46;1.53;;;0.50;;
1164;SDS011;571;50.930;6.926;2023-01-04T08:21:25;2.20;;;0.80;;
1164;SDS011;571;50.930;6.926;2023-01-04T10:51:12;1.23;;;0.60;;
1164;SDS011;571;50.930;6.926;2023-01-04T11:17:02;0.87;;;0.60;;
1164;SDS011;571;50.930;6.926;2023-01-04T11:33:29;0.83;;;0.53;;
1164;SDS011;571;50.930;6.926;2023-01-04T11:37:00;1.30;;;0.73;;
1164;SDS011;571;50.930;6.926;2023-01-04T11:43:55;1.63;;;0.70;;
1164;SDS011;571;50.930;6.926;2023-01-04T11:47:15;1.93;;;0.70;;
1164;SDS011;571;50.930;6.926;2023-01-04T12:08:01;0.87;;;0.60;;
1164;SDS011;571;50.930;6.926;2023-01-04T12:17:54;3.13;;;0.50;;
1164;SDS011;571;50.930;6.926;2023-01-04T12:23:34;0.80;;;0.40;;
1164;SDS011;571;50.930;6.926;2023-01-04T12:43:36;0.50;;;0.30;;
1164;SDS011;571;50.930;6.926;2023-01-04T12:46:49;0.40;;;0.30;;
1164;SDS011;571;50.930;6.926;2023-01-04T12:50:17;0.40;;;0.30;;
1164;SDS011;571;50.930;6.926;2023-01-04T13:14:32;0.80;;;0.50;;
1164;SDS011;571;50.930;6.926;2023-01-04T13:17:44;0.43;;;0.27;;
1164;SDS011;571;50.930;6.926;2023-01-04T17:22:43;2.87;;;1.20;;
1164;SDS011;571;50.930;6.926;2023-01-04T17:25:10;6.47;;;2.30;;
1164;SDS011;571;50.930;6.926;2023-01-04T17:27:36;6.97;;;1.63;;
1164;SDS011;571;50.930;6.926;2023-01-04T17:30:03;10.73;;;2.17;;
1164;SDS011;571;50.930;6.926;2023-01-04T17:32:31;12.60;;;3.23;;
1164;SDS011;571;50.930;6.926;2023-01-04T17:34:57;5.80;;;1.90;;
1164;SDS011;571;50.930;6.926;2023-01-04T17:37:25;7.80;;;2.00;;
1164;SDS011;571;50.930;6.926;2023-01-04T17:39:53;5.23;;;2.87;;
1164;SDS011;571;50.930;6.926;2023-01-04T17:42:19;8.33;;;2.47;;
1164;SDS011;571;50.930;6.926;2023-01-04T17:44:47;5.27;;;1.70;;
1164;SDS011;571;50.930;6.926;2023-01-04T17:47:13;7.57;;;1.70;;
1164;SDS011;571;50.930;6.926;2023-01-04T17:49:40;9.03;;;2.50;;
1164;SDS011;571;50.930;6.926;2023-01-04T17:52:07;4.40;;;2.07;;
1164;SDS011;571;50.930;6.926;2023-01-04T17:54:34;5.50;;;1.80;;
1164;SDS011;571;50.930;6.926;2023-01-04T17:57:02;9.30;;;2.53;;
1164;SDS011;571;50.930;6.926;2023-01-04T17:59:28;11.07;;;2.50;;
1164;SDS011;571;50.930;6.926;2023-01-04T18:01:55;9.63;;;2.13;;
1164;SDS011;571;50.930;6.926;2023-01-04T18:04:22;11.80;;;2.90;;
1164;SDS011;571;50.930;6.926;2023-01-04T18:06:49;12.77;;;4.10;;
1164;SDS011;571;50.930;6.926;2023-01-04T18:09:16;7.10;;;3.20;;
1164;SDS011;571;50.930;6.926;2023-01-04T18:11:43;16.00;;;4.17;;
1164;SDS011;571;50.930;6.926;2023-01-04T18:14:11;6.03;;;3.00;;
1164;SDS011;571;50.930;6.926;2023-01-04T18:16:38;9.20;;;2.77;;
1164;SDS011;571;50.930;6.926;2023-01-04T18:19:19;15.10;;;3.93;;
1164;SDS011;571;50.930;6.926;2023-01-04T18:21:46;11.40;;;3.60;;
1164;SDS011;571;50.930;6.926;2023-01-04T18:24:13;13.97;;;2.80;;
1164;SDS011;571;50.930;6.926;2023-01-04T18:26:40;4.70;;;1.90;;
1164;SDS011;571;50.930;6.926;2023-01-04T18:29:09;9.00;;;2.87;;
1164;SDS011;571;50.930;6.926;2023-01-04T18:31:37;12.23;;;3.57;;
1164;SDS011;571;50.930;6.926;2023-01-04T18:34:04;10.27;;;4.43;;
1164;SDS011;571;50.930;6.926;2023-01-04T18:36:30;14.03;;;3.63;;
1164;SDS011;571;50.930;6.926;2023-01-04T18:38:58;10.40;;;3.60;;
1164;SDS011;571;50.930;6.926;2023-01-04T18:41:25;10.93;;;4.20;;
1164;SDS011;571;50.930;6.926;2023-01-04T18:43:52;12.60;;;3.43;;
1164;SDS011;571;50.930;6.926;2023-01-04T18:46:21;13.30;;;5.00;;
1164;SDS011;571;50.930;6.926;2023-01-04T18:48:50;15.47;;;3.40;;
1164;SDS011;571;50.930;6.926;2023-01-04T18:51:17;11.53;;;3.70;;
1164;SDS011;571;50.930;6.926;2023-01-04T18:53:45;12.07;;;3.27;;
1164;SDS011;571;50.930;6.926;2023-01-04T18:56:13;11.73;;;3.27;;
1164;SDS011;571;50.930;6.926;2023-01-04T18:58:41;15.57;;;5.17;;
1164;SDS011;571;50.930;6.926;2023-01-04T19:01:08;7.37;;;3.20;;
1164;SDS011;571;50.930;6.926;2023-01-04T19:03:37;15.33;;;3.10;;
1164;SDS011;571;50.930;6.926;2023-01-04T19:06:07;11.43;;;4.20;;
1164;SDS011;571;50.930;6.926;2023-01-04T19:08:35;15.07;;;4.77;;
1164;SDS011;571;50.930;6.926;2023-01-04T19:11:02;13.97;;;4.23;;
1164;SDS011;571;50.930;6.926;2023-01-04T19:13:29;10.97;;;3.70;;
1164;SDS011;571;50.930;6.926;2023-01-04T19:15:57;6.27;;;2.43;;
1164;SDS011;571;50.930;6.926;2023-01-04T19:18:24;6.87;;;3.33;;
1164;SDS011;571;50.930;6.926;2023-01-04T19:20:52;22.60;;;5.67;;
1164;SDS011;571;50.930;6.926;2023-01-04T19:23:20;13.77;;;3.60;;
1164;SDS011;571;50.930;6.926;2023-01-04T19:25:47;19.87;;;4.80;;
1164;SDS011;571;50.930;6.926;2023-01-04T19:28:13;9.87;;;3.43;;
1164;SDS011;571;50.930;6.926;2023-01-04T19:30:43;11.93;;;4.03;;
1164;SDS011;571;50.930;6.926;2023-01-04T19:33:10;13.13;;;4.80;;
1164;SDS011;571;50.930;6.926;2023-01-04T19:35:38;14.67;;;4.57;;
1164;SDS011;571;50.930;6.926;2023-01-04T19:38:05;21.10;;;4.17;;
1164;SDS011;571;50.930;6.926;2023-01-04T19:40:34;17.40;;;3.60;;
1164;SDS011;571;50.930;6.926;2023-01-04T19:43:01;10.77;;;3.13;;
1164;SDS011;571;50.930;6.926;2023-01-04T19:45:27;5.97;;;3.80;;
1164;SDS011;571;50.930;6.926;2023-01-04T19:47:54;13.63;;;4.60;;
1164;SDS011;571;50.930;6.926;2023-01-04T19:50:21;13.37;;;5.07;;
1164;SDS011;571;50.930;6.926;2023-01-04T19:52:48;10.10;;;3.63;;
1164;SDS011;571;50.930;6.926;2023-01-04T19:55:15;10.30;;;3.33;;
1164;SDS011;571;50.930;6.926;2023-01-04T19:57:43;9.87;;;4.33;;
1164;SDS011;571;50.930;6.926;2023-01-04T20:00:10;12.10;;;3.60;;
1164;SDS011;571;50.930;6.926;2023-01-04T20:02:38;13.40;;;4.27;;
1164;SDS011;571;50.930;6.926;2023-01-04T20:05:05;12.30;;;4.50;;
1164;SDS011;571;50.930;6.926;2023-01-04T20:07:32;16.13;;;4.20;;
1164;SDS011;571;50.930;6.926;2023-01-04T20:09:59;12.50;;;4.03;;
1164;SDS011;571;50.930;6.926;2023-01-04T20:12:26;12.60;;;5.93;;
1164;SDS011;571;50.930;6.926;2023-01-04T20:14:54;12.93;;;4.00;;
1164;SDS011;571;50.930;6.926;2023-01-04T20:17:21;17.80;;;4.40;;
1164;SDS011;571;50.930;6.926;2023-01-04T20:19:48;10.73;;;3.53;;
1164;SDS011;571;50.930;6.926;2023-01-04T20:22:15;10.00;;;4.57;;
1164;SDS011;571;50.930;6.926;2023-01-04T20:24:41;10.30;;;3.67;;
1164;SDS011;571;50.930;6.926;2023-01-04T20:27:08;10.90;;;3.37;;
1164;SDS011;571;50.930;6.926;2023-01-04T20:29:35;8.33;;;3.63;;
1164;SDS011;571;50.930;6.926;2023-01-04T20:32:04;11.43;;;4.37;;
1164;SDS011;571;50.930;6.926;2023-01-04T20:34:31;7.33;;;3.17;;
1164;SDS011;571;50.930;6.926;2023-01-04T20:36:59;13.00;;;3.60;;
1164;SDS011;571;50.930;6.926;2023-01-04T20:39:26;11.77;;;4.83;;
1164;SDS011;571;50.930;6.926;2023-01-04T20:41:53;11.27;;;3.40;;
1164;SDS011;571;50.930;6.926;2023-01-04T20:44:37;9.47;;;3.83;;
1164;SDS011;571;50.930;6.926;2023-01-04T20:47:06;8.50;;;2.13;;
1164;SDS011;571;50.930;6.926;2023-01-04T20:49:33;11.13;;;2.50;;
1164;SDS011;571;50.930;6.926;2023-01-04T20:52:00;12.30;;;3.60;;
1164;SDS011;571;50.930;6.926;2023-01-04T20:54:27;8.40;;;3.20;;
1164;SDS011;571;50.930;6.926;2023-01-04T20:56:54;12.93;;;4.20;;
1164;SDS011;571;50.930;6.926;2023-01-04T20:59:21;17.43;;;3.97;;
1164;SDS011;571;50.930;6.926;2023-01-04T21:01:47;11.97;;;3.10;;
1164;SDS011;571;50.930;6.926;2023-01-04T21:04:16;13.70;;;4.30;;
1164;SDS011;571;50.930;6.926;2023-01-04T21:06:43;14.00;;;4.43;;
1164;SDS011;571;50.930;6.926;2023-01-04T21:09:10;15.83;;;4.67;;
1164;SDS011;571;50.930;6.926;2023-01-04T21:11:36;8.50;;;4.40;;
1164;SDS011;571;50.930;6.926;2023-01-04T21:14:04;12.27;;;4.30;;
1164;SDS011;571;50.930;6.926;2023-01-04T21:16:31;11.60;;;4.07;;
1164;SDS011;571;50.930;6.926;2023-01-04T21:18:58;9.43;;;3.70;;
1164;SDS011;571;50.930;6.926;2023-01-04T21:21:26;7.90;;;3.50;;
1164;SDS011;571;50.930;6.926;2023-01-04T21:23:53;12.40;;;3.57;;
1164;SDS011;571;50.930;6.926;2023-01-04T21:26:19;15.73;;;4.80;;
1164;SDS011;571;50.930;6.926;2023-01-04T21:28:46;12.60;;;2.70;;
1164;SDS011;571;50.930;6.926;2023-01-04T21:31:14;17.13;;;3.80;;
1164;SDS011;571;50.930;6.926;2023-01-04T21:33:43;7.80;;;2.73;;
1164;SDS011;571;50.930;6.926;2023-01-04T21:36:10;14.47;;;4.57;;
1164;SDS011;571;50.930;6.926;2023-01-04T21:38:40;11.20;;;3.43;;
1164;SDS011;571;50.930;6.926;2023-01-04T21:41:07;9.60;;;3.60;;
1164;SDS011;571;50.930;6.926;2023-01-04T21:43:35;27.93;;;5.60;;
1164;SDS011;571;50.930;6.926;2023-01-04T21:46:03;16.70;;;5.23;;
1164;SDS011;571;50.930;6.926;2023-01-04T21:48:31;2.00;;;1.73;;
1164;SDS011;571;50.930;6.926;2023-01-04T21:50:58;7.40;;;2.70;;
1164;SDS011;571;50.930;6.926;2023-01-04T21:53:26;8.97;;;2.53;;
1164;SDS011;571;50.930;6.926;2023-01-04T21:55:58;9.07;;;3.40;;
1164;SDS011;571;50.930;6.926;2023-01-04T21:58:26;5.53;;;3.03;;
1164;SDS011;571;50.930;6.926;2023-01-04T22:00:54;5.93;;;4.03;;
1164;SDS011;571;50.930;6.926;2023-01-04T22:03:21;9.90;;;3.50;;
1164;SDS011;571;50.930;6.926;2023-01-04T22:05:48;7.53;;;3.30;;
1164;SDS011;571;50.930;6.926;2023-01-04T22:08:15;16.50;;;3.97;;
1164;SDS011;571;50.930;6.926;2023-01-04T22:10:42;11.80;;;3.77;;
1164;SDS011;571;50.930;6.926;2023-01-04T22:13:10;8.10;;;3.13;;
1164;SDS011;571;50.930;6.926;2023-01-04T22:15:37;11.73;;;4.00;;
1164;SDS011;571;50.930;6.926;2023-01-04T22:18:04;4.70;;;2.87;;
1164;SDS011;571;50.930;6.926;2023-01-04T22:20:31;11.03;;;3.10;;
1164;SDS011;571;50.930;6.926;2023-01-04T22:22:58;8.50;;;3.20;;
1164;SDS011;571;50.930;6.926;2023-01-04T22:25:25;8.77;;;2.33;;
1164;SDS011;571;50.930;6.926;2023-01-04T22:27:52;13.33;;;3.63;;
1164;SDS011;571;50.930;6.926;2023-01-04T22:30:20;10.67;;;3.77;;
1164;SDS011;571;50.930;6.926;2023-01-04T22:32:47;10.10;;;3.97;;
1164;SDS011;571;50.930;6.926;2023-01-04T22:35:13;7.30;;;2.77;;
1164;SDS011;571;50.930;6.926;2023-01-04T22:37:40;6.63;;;2.53;;
1164;SDS011;571;50.930;6.926;2023-01-04T22:40:07;14.93;;;3.17;;
1164;SDS011;571;50.930;6.926;2023-01-04T22:42:34;5.70;;;2.77;;
1164;SDS011;571;50.930;6.926;2023-01-04T22:45:01;7.53;;;2.97;;
1164;SDS011;571;50.930;6.926;2023-01-04T22:47:29;11.87;;;3.13;;
1164;SDS011;571;50.930;6.926;2023-01-04T22:49:56;13.57;;;4.70;;
1164;SDS011;571;50.930;6.926;2023-01-04T22:52:29;7.97;;;2.90;;
1164;SDS011;571;50.930;6.926;2023-01-04T22:54:59;10.13;;;3.40;;
1164;SDS011;571;50.930;6.926;2023-01-04T22:57:26;13.10;;;3.87;;
1164;SDS011;571;50.930;6.926;2023-01-04T22:59:52;10.87;;;3.27;;
